createdAt,value
2019-05-29T00:01:21.712Z,8.10
2019-05-29T00:03:50.286Z,8.13
2019-05-29T00:06:20.057Z,7.90
2019-05-29T00:08:49.865Z,7.63
2019-05-29T00:11:19.639Z,7.80
2019-05-29T00:13:51.087Z,8.73
2019-05-29T00:16:20.947Z,8.13
2019-05-29T00:18:50.729Z,8.43
2019-05-29T00:21:20.599Z,8.00
2019-05-29T00:23:50.391Z,8.30
2019-05-29T00:26:20.694Z,8.17
2019-05-29T00:28:50.499Z,8.13
2019-05-29T00:31:20.280Z,8.00
2019-05-29T00:33:50.096Z,7.00
2019-05-29T00:36:19.881Z,6.47
2019-05-29T00:38:50.768Z,6.90
2019-05-29T00:41:20.545Z,6.43
2019-05-29T00:43:50.700Z,6.87
2019-05-29T00:46:20.752Z,7.23
2019-05-29T00:48:50.533Z,6.80
2019-05-29T00:51:20.668Z,7.47
2019-05-29T00:53:50.446Z,7.63
2019-05-29T00:56:20.900Z,8.17
2019-05-29T00:58:51.718Z,7.93
2019-05-29T01:01:21.904Z,6.47
2019-05-29T01:03:51.948Z,7.30
2019-05-29T01:06:21.905Z,6.17
2019-05-29T01:08:51.691Z,7.60
2019-05-29T01:11:21.490Z,7.20
2019-05-29T01:13:51.631Z,6.70
2019-05-29T01:16:21.767Z,7.57
2019-05-29T01:18:52.565Z,6.60
2019-05-29T01:21:22.436Z,7.53
2019-05-29T01:23:53.296Z,7.67
2019-05-29T01:26:23.168Z,7.30
2019-05-29T01:28:53.284Z,7.80
2019-05-29T01:31:23.583Z,7.47
2019-05-29T01:33:53.474Z,7.53
2019-05-29T01:36:24.193Z,6.87
2019-05-29T01:38:54.070Z,7.57
2019-05-29T01:41:23.865Z,6.80
2019-05-29T01:43:53.970Z,6.37
2019-05-29T01:46:23.980Z,6.60
2019-05-29T01:48:53.839Z,6.20
2019-05-29T01:51:24.010Z,5.57
2019-05-29T01:53:53.799Z,4.30
2019-05-29T01:56:24.090Z,4.37
2019-05-29T01:58:54.112Z,3.00
2019-05-29T02:01:24.043Z,4.13
2019-05-29T02:03:53.885Z,3.23
2019-05-29T02:06:24.423Z,3.27
2019-05-29T02:08:54.211Z,3.00
2019-05-29T02:11:24.007Z,3.40
2019-05-29T02:13:54.205Z,3.10
2019-05-29T02:16:24.907Z,3.17
2019-05-29T02:18:54.732Z,2.80
2019-05-29T02:21:24.634Z,2.93
2019-05-29T02:23:54.756Z,2.50
2019-05-29T02:26:24.626Z,2.67
2019-05-29T02:28:54.406Z,2.53
2019-05-29T02:31:26.517Z,2.63
2019-05-29T02:33:56.257Z,2.60
2019-05-29T02:36:27.191Z,3.00
2019-05-29T02:38:57.635Z,3.00
2019-05-29T02:41:28.471Z,3.40
2019-05-29T02:43:59.574Z,3.40
2019-05-29T02:46:30.150Z,3.37
2019-05-29T02:49:00.406Z,3.27
2019-05-29T02:51:30.583Z,3.50
2019-05-29T02:54:00.668Z,3.40
2019-05-29T02:56:31.331Z,3.30
2019-05-29T02:59:01.099Z,3.17
2019-05-29T03:01:31.841Z,3.50
2019-05-29T03:04:01.733Z,3.63
2019-05-29T03:06:32.364Z,3.33
2019-05-29T03:09:02.901Z,3.23
2019-05-29T03:11:33.440Z,3.40
2019-05-29T03:14:04.394Z,3.67
2019-05-29T03:16:35.029Z,3.30
2019-05-29T03:19:05.008Z,3.77
2019-05-29T03:21:34.948Z,3.30
2019-05-29T03:24:05.006Z,3.63
2019-05-29T03:26:35.885Z,3.57
2019-05-29T03:29:05.727Z,3.40
2019-05-29T03:31:45.555Z,3.87
2019-05-29T03:34:07.012Z,3.53
2019-05-29T03:36:46.020Z,3.40
2019-05-29T03:39:08.611Z,3.63
2019-05-29T03:41:39.138Z,3.50
2019-05-29T03:44:10.606Z,3.40
2019-05-29T03:46:45.248Z,3.17
2019-05-29T03:49:12.712Z,3.00
2019-05-29T03:51:42.935Z,3.37
2019-05-29T03:54:12.727Z,3.50
2019-05-29T03:56:42.589Z,3.53
2019-05-29T03:59:12.383Z,3.70
2019-05-29T04:01:42.173Z,3.10
2019-05-29T04:04:12.494Z,3.20
2019-05-29T04:06:42.291Z,3.20
2019-05-29T04:09:12.063Z,3.60
2019-05-29T04:11:42.128Z,3.20
2019-05-29T04:14:12.045Z,3.17
2019-05-29T04:16:58.975Z,2.90
2019-05-29T04:19:15.741Z,3.53
2019-05-29T04:21:46.888Z,3.50
2019-05-29T04:24:18.676Z,3.07
2019-05-29T04:26:51.445Z,3.40
2019-05-29T04:29:22.368Z,3.33
2019-05-29T04:31:52.387Z,3.40
2019-05-29T04:34:22.186Z,3.03
2019-05-29T04:36:52.938Z,3.43
2019-05-29T04:39:22.757Z,3.83
2019-05-29T04:41:52.541Z,3.40
2019-05-29T04:44:22.405Z,3.10
2019-05-29T04:47:09.375Z,3.00
2019-05-29T04:49:23.756Z,3.17
2019-05-29T04:51:53.558Z,3.53
2019-05-29T04:54:23.350Z,2.70
2019-05-29T04:56:53.148Z,2.87
2019-05-29T04:59:22.931Z,2.77
2019-05-29T05:01:52.715Z,2.80
2019-05-29T05:04:22.510Z,3.07
2019-05-29T05:06:52.307Z,3.50
2019-05-29T05:09:22.106Z,3.03
2019-05-29T05:11:52.139Z,2.60
2019-05-29T05:14:22.004Z,2.60
2019-05-29T05:16:53.681Z,2.53
2019-05-29T05:19:23.819Z,2.40
2019-05-29T05:21:53.599Z,2.37
2019-05-29T05:24:23.385Z,2.30
2019-05-29T05:26:53.562Z,2.97
2019-05-29T05:29:23.351Z,2.30
2019-05-29T05:31:53.128Z,2.57
2019-05-29T05:34:22.915Z,2.53
2019-05-29T05:36:52.805Z,2.50
2019-05-29T05:39:23.258Z,2.30
2019-05-29T05:41:53.271Z,2.57
2019-05-29T05:44:23.087Z,2.60
2019-05-29T05:46:52.871Z,2.60
2019-05-29T05:49:23.397Z,2.40
2019-05-29T05:51:53.195Z,2.43
2019-05-29T05:54:22.980Z,2.13
2019-05-29T05:56:53.597Z,2.57
2019-05-29T05:59:23.993Z,2.30
2019-05-29T06:01:53.853Z,2.63
2019-05-29T06:04:23.718Z,2.73
2019-05-29T06:06:53.863Z,2.27
2019-05-29T06:09:23.655Z,2.70
2019-05-29T06:11:53.440Z,2.60
2019-05-29T06:14:23.658Z,2.50
2019-05-29T06:16:53.447Z,2.40
2019-05-29T06:19:23.607Z,2.57
2019-05-29T06:21:53.881Z,2.50
2019-05-29T06:24:23.672Z,2.50
2019-05-29T06:26:53.449Z,2.50
2019-05-29T06:29:23.254Z,2.37
2019-05-29T06:31:53.029Z,2.87
2019-05-29T06:34:23.814Z,2.57
2019-05-29T06:36:53.672Z,2.67
2019-05-29T06:39:23.718Z,2.73
2019-05-29T06:41:53.833Z,2.37
2019-05-29T06:44:23.934Z,2.47
2019-05-29T06:46:53.962Z,2.97
2019-05-29T06:49:23.741Z,2.33
2019-05-29T06:51:53.545Z,2.13
2019-05-29T06:54:23.334Z,2.40
2019-05-29T06:56:53.621Z,2.40
2019-05-29T06:59:23.669Z,2.43
2019-05-29T07:01:53.701Z,2.23
2019-05-29T07:04:23.496Z,2.53
2019-05-29T07:06:53.276Z,2.67
2019-05-29T07:09:23.414Z,2.43
2019-05-29T07:11:53.207Z,2.47
2019-05-29T07:14:22.973Z,2.40
2019-05-29T07:16:56.278Z,2.33
2019-05-29T07:19:32.769Z,2.30
2019-05-29T07:21:55.874Z,2.67
2019-05-29T07:24:25.650Z,2.37
2019-05-29T07:26:55.447Z,2.83
2019-05-29T07:29:25.528Z,2.87
2019-05-29T07:31:55.313Z,2.50
2019-05-29T07:34:25.193Z,2.27
2019-05-29T07:36:55.248Z,2.40
2019-05-29T07:39:25.018Z,2.40
2019-05-29T07:41:54.809Z,2.50
2019-05-29T07:44:24.851Z,2.93
2019-05-29T07:46:55.362Z,2.40
2019-05-29T07:49:38.415Z,2.70
2019-05-29T07:51:56.746Z,3.10
2019-05-29T07:54:26.527Z,2.50
2019-05-29T07:56:56.322Z,2.57
2019-05-29T07:59:28.619Z,2.67
2019-05-29T08:01:57.601Z,2.80
2019-05-29T08:04:27.662Z,2.67
2019-05-29T08:06:57.862Z,2.63
2019-05-29T08:09:28.033Z,3.30
2019-05-29T08:11:57.820Z,3.20
2019-05-29T08:14:27.911Z,2.57
2019-05-29T08:16:57.705Z,2.43
2019-05-29T08:19:28.260Z,2.70
2019-05-29T08:21:58.059Z,3.27
2019-05-29T08:24:27.858Z,2.63
2019-05-29T08:26:57.993Z,2.90
2019-05-29T08:29:27.934Z,2.77
2019-05-29T08:31:57.727Z,3.00
2019-05-29T08:34:27.523Z,2.90
2019-05-29T08:37:06.196Z,2.93
2019-05-29T08:39:36.130Z,2.50
2019-05-29T08:42:21.473Z,2.80
2019-05-29T08:44:31.902Z,2.37
2019-05-29T08:47:10.067Z,2.53
2019-05-29T08:49:33.184Z,2.57
2019-05-29T08:52:12.000Z,2.67
2019-05-29T08:54:34.490Z,2.73
2019-05-29T08:57:04.465Z,2.57
2019-05-29T08:59:34.248Z,2.80
2019-05-29T09:02:04.193Z,2.50
2019-05-29T09:04:33.984Z,2.33
2019-05-29T09:07:03.851Z,2.50
2019-05-29T09:09:34.074Z,2.77
2019-05-29T09:12:04.149Z,2.37
2019-05-29T09:14:33.943Z,3.07
2019-05-29T09:17:03.748Z,2.60
2019-05-29T09:19:33.585Z,2.53
2019-05-29T09:22:03.458Z,2.50
2019-05-29T09:24:33.413Z,2.40
2019-05-29T09:27:03.213Z,2.33
2019-05-29T09:29:32.999Z,2.43
2019-05-29T09:32:02.800Z,2.23
2019-05-29T09:34:32.584Z,2.27
2019-05-29T09:37:03.014Z,2.10
2019-05-29T09:39:32.828Z,2.33
2019-05-29T09:42:02.653Z,2.40
2019-05-29T09:44:38.808Z,2.57
2019-05-29T09:47:06.515Z,2.33
2019-05-29T09:49:36.353Z,2.20
2019-05-29T09:52:06.221Z,2.50
2019-05-29T09:54:36.168Z,2.20
2019-05-29T09:57:06.149Z,1.80
2019-05-29T09:59:35.932Z,1.97
2019-05-29T10:02:08.964Z,2.10
2019-05-29T10:04:37.411Z,2.20
2019-05-29T10:07:07.243Z,1.80
2019-05-29T10:09:37.025Z,2.13
2019-05-29T10:12:07.093Z,1.70
2019-05-29T10:14:36.924Z,2.10
2019-05-29T10:17:11.692Z,2.80
2019-05-29T10:19:38.209Z,1.73
2019-05-29T10:22:08.094Z,2.17
2019-05-29T10:24:37.878Z,2.30
2019-05-29T10:27:07.752Z,2.27
2019-05-29T10:29:37.550Z,1.90
2019-05-29T10:32:07.347Z,2.10
2019-05-29T10:34:37.148Z,2.07
2019-05-29T10:37:07.003Z,2.03
2019-05-29T10:39:36.825Z,1.73
2019-05-29T10:42:06.676Z,2.10
2019-05-29T10:44:37.546Z,1.77
2019-05-29T10:47:07.600Z,1.90
2019-05-29T10:49:37.395Z,1.50
2019-05-29T10:52:16.142Z,2.00
2019-05-29T10:54:39.410Z,2.30
2019-05-29T10:57:09.234Z,1.97
2019-05-29T10:59:40.648Z,1.77
2019-05-29T11:02:10.656Z,1.80
2019-05-29T11:04:40.451Z,2.00
2019-05-29T11:07:10.230Z,1.80
2019-05-29T11:09:44.626Z,2.00
2019-05-29T11:12:11.749Z,1.97
2019-05-29T11:14:41.617Z,2.20
2019-05-29T11:17:11.398Z,2.17
2019-05-29T11:19:41.469Z,2.03
2019-05-29T11:22:25.676Z,2.07
2019-05-29T11:24:42.789Z,1.90
2019-05-29T11:27:12.571Z,2.30
2019-05-29T11:29:42.427Z,2.13
2019-05-29T11:32:12.236Z,2.30
2019-05-29T11:34:43.350Z,2.17
2019-05-29T11:37:13.160Z,2.37
2019-05-29T11:39:42.974Z,2.10
2019-05-29T11:42:26.304Z,2.07
2019-05-29T11:44:44.258Z,1.90
2019-05-29T11:47:14.561Z,1.90
2019-05-29T11:49:44.743Z,1.83
2019-05-29T11:52:24.270Z,2.00
2019-05-29T11:54:47.139Z,1.70
2019-05-29T11:57:17.190Z,2.00
2019-05-29T11:59:46.988Z,1.80
2019-05-29T12:02:16.770Z,1.80
2019-05-29T12:04:46.910Z,2.00
2019-05-29T12:07:17.065Z,1.83
2019-05-29T12:09:46.868Z,1.90
2019-05-29T12:12:18.387Z,2.07
2019-05-29T12:15:00.764Z,2.03
2019-05-29T12:17:19.686Z,1.80
2019-05-29T12:19:49.536Z,1.57
2019-05-29T12:22:19.560Z,1.73
2019-05-29T12:24:49.354Z,1.50
2019-05-29T12:27:19.221Z,1.60
2019-05-29T12:29:49.025Z,1.40
2019-05-29T12:32:19.093Z,1.70
2019-05-29T12:34:53.543Z,1.40
2019-05-29T12:37:21.436Z,1.60
2019-05-29T12:39:51.478Z,1.23
2019-05-29T12:42:21.601Z,1.50
2019-05-29T12:44:51.582Z,1.50
2019-05-29T12:47:21.999Z,1.17
2019-05-29T12:49:53.696Z,1.17
2019-05-29T12:52:25.422Z,1.40
2019-05-29T12:54:55.935Z,1.40
2019-05-29T12:57:25.962Z,1.53
2019-05-29T12:59:56.153Z,1.50
2019-05-29T13:02:27.260Z,1.50
2019-05-29T13:05:11.985Z,1.20
2019-05-29T13:07:29.752Z,1.50
2019-05-29T13:10:00.468Z,1.50
2019-05-29T13:12:32.588Z,1.30
2019-05-29T13:15:03.723Z,1.30
2019-05-29T13:17:34.154Z,1.53
2019-05-29T13:20:20.124Z,1.20
2019-05-29T13:22:36.797Z,1.30
2019-05-29T13:25:08.037Z,1.33
2019-05-29T13:27:37.822Z,1.20
2019-05-29T13:30:08.883Z,1.30
2019-05-29T13:32:38.743Z,1.10
2019-05-29T13:35:09.386Z,1.07
2019-05-29T13:37:39.179Z,1.27
2019-05-29T13:40:10.034Z,1.10
2019-05-29T13:42:40.732Z,1.37
2019-05-29T13:45:17.876Z,1.20
2019-05-29T13:47:43.166Z,1.30
2019-05-29T13:50:14.631Z,1.10
2019-05-29T13:52:44.825Z,1.20
2019-05-29T13:55:15.067Z,1.43
2019-05-29T13:57:45.159Z,1.00
2019-05-29T14:00:34.237Z,1.33
2019-05-29T14:02:47.221Z,1.20
2019-05-29T14:05:17.762Z,1.10
2019-05-29T14:07:47.559Z,1.30
2019-05-29T14:10:17.504Z,1.10
2019-05-29T14:12:47.819Z,1.30
2019-05-29T14:15:17.983Z,0.93
2019-05-29T14:17:47.757Z,1.10
2019-05-29T14:20:19.072Z,1.20
2019-05-29T14:22:48.930Z,1.00
2019-05-29T14:25:18.882Z,1.10
2019-05-29T14:27:48.938Z,1.30
2019-05-29T14:30:19.267Z,0.97
2019-05-29T14:32:49.059Z,1.03
2019-05-29T14:35:19.311Z,1.03
2019-05-29T14:37:49.110Z,0.80
2019-05-29T14:40:19.146Z,1.03
2019-05-29T14:42:48.984Z,0.90
2019-05-29T14:45:19.718Z,0.93
2019-05-29T14:47:49.512Z,1.20
2019-05-29T14:50:19.971Z,1.20
2019-05-29T14:52:50.130Z,0.90
2019-05-29T14:55:20.664Z,1.20
2019-05-29T14:57:50.481Z,0.80
2019-05-29T15:00:25.505Z,0.73
2019-05-29T15:02:52.128Z,0.90
2019-05-29T15:05:22.167Z,0.80
2019-05-29T15:07:51.960Z,0.60
2019-05-29T15:10:27.278Z,0.80
2019-05-29T15:12:57.828Z,0.90
2019-05-29T15:15:25.070Z,0.80
2019-05-29T15:17:54.941Z,0.97
2019-05-29T15:20:25.010Z,0.90
2019-05-29T15:22:55.127Z,0.90
2019-05-29T15:25:25.018Z,1.30
2019-05-29T15:27:54.827Z,0.80
2019-05-29T15:30:24.703Z,0.80
2019-05-29T15:32:54.522Z,0.73
2019-05-29T15:35:24.412Z,1.00
2019-05-29T15:37:54.220Z,0.80
2019-05-29T15:40:24.156Z,0.70
2019-05-29T15:42:53.951Z,0.80
2019-05-29T15:45:24.348Z,0.63
2019-05-29T15:47:54.179Z,1.57
2019-05-29T15:50:24.113Z,0.70
2019-05-29T15:52:53.909Z,0.60
2019-05-29T15:55:32.086Z,0.80
2019-05-29T15:57:55.285Z,0.63
2019-05-29T16:00:25.322Z,0.57
2019-05-29T16:02:55.378Z,0.70
2019-05-29T16:05:25.184Z,0.53
2019-05-29T16:07:57.672Z,0.50
2019-05-29T16:10:27.510Z,0.73
2019-05-29T16:12:57.705Z,0.70
2019-05-29T16:15:27.644Z,0.80
2019-05-29T16:17:58.146Z,0.50
2019-05-29T16:20:28.040Z,0.40
2019-05-29T16:22:59.098Z,0.70
2019-05-29T16:25:39.736Z,0.60
2019-05-29T16:28:00.493Z,0.70
2019-05-29T16:30:31.353Z,0.70
2019-05-29T16:33:01.255Z,0.57
2019-05-29T16:35:31.113Z,0.60
2019-05-29T16:38:00.945Z,0.50
2019-05-29T16:40:31.158Z,0.60
2019-05-29T16:43:00.957Z,0.70
2019-05-29T16:45:30.751Z,0.50
2019-05-29T16:48:00.545Z,0.77
2019-05-29T16:50:30.332Z,0.60
2019-05-29T16:53:00.386Z,0.80
2019-05-29T16:55:30.304Z,0.80
2019-05-29T16:58:00.108Z,0.70
2019-05-29T17:00:30.056Z,0.70
2019-05-29T17:02:59.850Z,0.63
2019-05-29T17:05:29.790Z,0.60
2019-05-29T17:07:59.777Z,0.70
2019-05-29T17:10:36.357Z,0.43
2019-05-29T17:13:07.565Z,0.60
2019-05-29T17:15:37.427Z,0.70
2019-05-29T17:18:07.651Z,0.60
2019-05-29T17:20:42.076Z,0.90
2019-05-29T17:23:12.474Z,0.60
2019-05-29T17:25:42.592Z,0.53
2019-05-29T17:28:12.657Z,0.40
2019-05-29T17:30:42.460Z,0.60
2019-05-29T17:33:13.305Z,0.50
2019-05-29T17:35:43.082Z,0.50
2019-05-29T17:38:12.928Z,0.70
2019-05-29T17:40:42.810Z,0.80
2019-05-29T17:43:12.620Z,0.63
2019-05-29T17:45:42.519Z,0.50
2019-05-29T17:48:12.646Z,0.60
2019-05-29T17:50:42.477Z,0.70
2019-05-29T17:53:12.347Z,0.70
2019-05-29T17:55:42.409Z,0.60
2019-05-29T17:58:12.194Z,0.63
2019-05-29T18:00:41.993Z,0.60
2019-05-29T18:03:11.888Z,0.70
2019-05-29T18:05:42.025Z,0.60
2019-05-29T18:08:11.814Z,0.70
2019-05-29T18:10:41.851Z,0.50
2019-05-29T18:13:11.802Z,0.50
2019-05-29T18:15:41.832Z,0.53
2019-05-29T18:18:11.625Z,0.67
2019-05-29T18:20:41.442Z,0.60
2019-05-29T18:23:11.645Z,0.70
2019-05-29T18:25:41.782Z,0.80
2019-05-29T18:28:11.612Z,0.53
2019-05-29T18:30:41.526Z,0.90
2019-05-29T18:33:11.792Z,0.70
2019-05-29T18:35:41.755Z,0.70
2019-05-29T18:38:11.544Z,0.60
2019-05-29T18:40:41.413Z,0.80
2019-05-29T18:43:11.711Z,0.80
2019-05-29T18:45:42.101Z,0.70
2019-05-29T18:48:11.958Z,0.57
2019-05-29T18:50:44.341Z,0.47
2019-05-29T18:53:13.344Z,0.80
2019-05-29T18:55:43.451Z,0.77
2019-05-29T18:58:13.229Z,0.70
2019-05-29T19:00:43.423Z,0.70
2019-05-29T19:03:13.268Z,1.00
2019-05-29T19:05:43.526Z,0.63
2019-05-29T19:08:13.299Z,0.80
2019-05-29T19:10:43.204Z,0.77
2019-05-29T19:13:13.061Z,0.80
2019-05-29T19:15:42.853Z,0.93
2019-05-29T19:18:12.782Z,0.77
2019-05-29T19:20:42.592Z,0.80
2019-05-29T19:23:12.648Z,0.73
2019-05-29T19:25:42.452Z,0.90
2019-05-29T19:28:12.222Z,0.70
2019-05-29T19:30:42.089Z,0.80
2019-05-29T19:33:11.948Z,0.73
2019-05-29T19:35:41.712Z,0.70
2019-05-29T19:38:11.816Z,0.83
2019-05-29T19:40:41.606Z,0.80
2019-05-29T19:43:11.618Z,0.70
2019-05-29T19:45:41.403Z,0.77
2019-05-29T19:48:11.246Z,0.80
2019-05-29T19:50:41.036Z,0.70
2019-05-29T19:53:10.890Z,0.67
2019-05-29T19:55:40.754Z,1.13
2019-05-29T19:58:10.823Z,1.00
2019-05-29T20:00:40.630Z,0.70
2019-05-29T20:03:10.580Z,1.00
2019-05-29T20:05:40.378Z,1.00
2019-05-29T20:08:10.231Z,0.90
2019-05-29T20:10:40.101Z,1.00
2019-05-29T20:13:09.883Z,0.97
2019-05-29T20:15:40.029Z,0.97
2019-05-29T20:18:10.043Z,1.03
2019-05-29T20:20:40.163Z,0.73
2019-05-29T20:23:10.071Z,1.37
2019-05-29T20:25:39.905Z,0.93
2019-05-29T20:28:09.691Z,1.30
2019-05-29T20:30:39.540Z,0.83
2019-05-29T20:33:09.612Z,0.90
2019-05-29T20:35:39.517Z,1.00
2019-05-29T20:38:09.295Z,1.07
2019-05-29T20:40:39.565Z,1.20
2019-05-29T20:43:09.353Z,0.90
2019-05-29T20:45:39.730Z,1.20
2019-05-29T20:48:09.950Z,1.20
2019-05-29T20:50:39.751Z,1.20
2019-05-29T20:53:09.626Z,0.90
2019-05-29T20:55:39.843Z,1.27
2019-05-29T20:58:24.222Z,1.17
2019-05-29T21:00:42.716Z,1.20
2019-05-29T21:03:12.497Z,1.10
2019-05-29T21:05:42.849Z,0.90
2019-05-29T21:08:12.654Z,1.10
2019-05-29T21:10:43.635Z,1.27
2019-05-29T21:13:13.567Z,1.23
2019-05-29T21:15:43.810Z,1.30
2019-05-29T21:18:13.707Z,1.30
2019-05-29T21:20:44.587Z,1.30
2019-05-29T21:23:14.444Z,1.50
2019-05-29T21:25:44.979Z,1.00
2019-05-29T21:28:14.750Z,1.20
2019-05-29T21:30:45.731Z,1.20
2019-05-29T21:33:15.664Z,1.40
2019-05-29T21:35:46.378Z,0.93
2019-05-29T21:38:16.201Z,1.33
2019-05-29T21:40:46.717Z,1.07
2019-05-29T21:43:16.552Z,1.00
2019-05-29T21:45:47.308Z,1.10
2019-05-29T21:48:17.106Z,1.30
2019-05-29T21:50:47.422Z,1.17
2019-05-29T21:53:17.622Z,1.10
2019-05-29T21:55:48.375Z,1.10
2019-05-29T21:58:18.276Z,1.30
2019-05-29T22:00:51.064Z,1.27
2019-05-29T22:03:22.551Z,1.30
2019-05-29T22:05:52.790Z,1.20
2019-05-29T22:08:22.671Z,1.33
2019-05-29T22:10:53.440Z,1.43
2019-05-29T22:13:23.909Z,1.10
2019-05-29T22:15:54.747Z,1.40
2019-05-29T22:18:24.703Z,1.43
2019-05-29T22:20:56.546Z,1.40
2019-05-29T22:23:26.042Z,1.40
2019-05-29T22:25:55.822Z,1.10
2019-05-29T22:28:25.664Z,1.00
2019-05-29T22:30:55.436Z,1.30
2019-05-29T22:33:25.227Z,1.23
2019-05-29T22:35:55.708Z,1.40
2019-05-29T22:38:25.815Z,1.20
2019-05-29T22:40:55.946Z,1.37
2019-05-29T22:43:25.805Z,1.13
2019-05-29T22:45:55.701Z,1.30
2019-05-29T22:48:25.448Z,1.43
2019-05-29T22:50:55.738Z,1.30
2019-05-29T22:53:25.605Z,1.37
2019-05-29T22:55:55.769Z,1.30
2019-05-29T22:58:25.709Z,1.00
2019-05-29T23:00:57.972Z,1.17
2019-05-29T23:03:27.871Z,1.30
2019-05-29T23:05:58.234Z,1.30
2019-05-29T23:08:28.446Z,1.50
2019-05-29T23:10:58.370Z,1.60
2019-05-29T23:13:29.486Z,1.77
2019-05-29T23:16:00.675Z,1.43
2019-05-29T23:18:30.973Z,1.63
2019-05-29T23:21:00.764Z,1.70
2019-05-29T23:23:30.930Z,1.57
2019-05-29T23:26:00.834Z,1.60
2019-05-29T23:28:30.638Z,1.10
2019-05-29T23:31:00.999Z,1.47
2019-05-29T23:33:31.036Z,1.23
2019-05-29T23:36:01.283Z,1.63
2019-05-29T23:38:31.021Z,1.43
2019-05-29T23:41:01.484Z,1.50
2019-05-29T23:43:32.678Z,1.43
2019-05-29T23:46:04.027Z,1.50
2019-05-29T23:48:33.789Z,1.23
2019-05-29T23:51:03.864Z,1.40
2019-05-29T23:53:33.836Z,1.10
2019-05-29T23:56:04.015Z,1.13
2019-05-29T23:58:33.885Z,1.70
